createdAt,value
2017-06-21T00:00:43.917Z,21.20
2017-06-21T00:03:11.458Z,21.00
2017-06-21T00:05:38.938Z,20.90
2017-06-21T00:08:07.187Z,20.90
2017-06-21T00:10:34.664Z,20.90
2017-06-21T00:13:02.123Z,20.80
2017-06-21T00:15:30.374Z,20.60
2017-06-21T00:17:57.838Z,20.60
2017-06-21T00:20:25.391Z,20.70
2017-06-21T00:22:52.855Z,20.70
2017-06-21T00:25:20.314Z,20.60
2017-06-21T00:27:47.867Z,20.60
2017-06-21T00:30:15.426Z,20.60
2017-06-21T00:32:42.894Z,20.50
2017-06-21T00:35:11.150Z,20.50
2017-06-21T00:37:38.614Z,20.50
2017-06-21T00:40:06.170Z,20.50
2017-06-21T00:42:33.727Z,20.40
2017-06-21T00:45:01.186Z,20.30
2017-06-21T00:47:28.739Z,20.30
2017-06-21T00:49:56.195Z,20.20
2017-06-21T00:52:23.651Z,20.20
2017-06-21T00:54:51.114Z,20.20
2017-06-21T00:57:18.671Z,20.20
2017-06-21T00:59:46.230Z,20.20
2017-06-21T01:02:13.700Z,20.20
2017-06-21T01:04:41.969Z,19.90
2017-06-21T01:07:09.431Z,19.90
2017-06-21T01:09:37.696Z,20.10
2017-06-21T01:12:05.254Z,20.00
2017-06-21T01:14:32.734Z,20.00
2017-06-21T01:17:00.962Z,20.00
2017-06-21T01:19:28.422Z,19.90
2017-06-21T01:21:55.895Z,19.80
2017-06-21T01:24:23.355Z,19.70
2017-06-21T01:26:50.817Z,19.60
2017-06-21T01:29:18.278Z,19.70
2017-06-21T01:31:45.743Z,19.70
2017-06-21T01:34:13.994Z,19.70
2017-06-21T01:36:41.554Z,19.70
2017-06-21T01:39:09.114Z,19.70
2017-06-21T01:41:36.586Z,19.70
2017-06-21T01:44:04.811Z,19.70
2017-06-21T01:46:32.285Z,19.70
2017-06-21T01:48:59.742Z,19.70
2017-06-21T01:51:27.215Z,19.70
2017-06-21T01:53:54.679Z,19.60
2017-06-21T01:56:22.934Z,19.50
2017-06-21T01:58:50.407Z,19.40
2017-06-21T02:01:17.867Z,19.40
2017-06-21T02:03:46.103Z,19.40
2017-06-21T02:06:13.567Z,19.30
2017-06-21T02:08:41.147Z,19.30
2017-06-21T02:11:08.602Z,19.30
2017-06-21T02:13:36.155Z,19.30
2017-06-21T02:16:03.715Z,19.40
2017-06-21T02:18:31.183Z,19.40
2017-06-21T02:20:58.643Z,19.30
2017-06-21T02:23:26.867Z,19.20
2017-06-21T02:25:54.368Z,19.20
2017-06-21T02:28:21.928Z,19.20
2017-06-21T02:30:49.484Z,19.10
2017-06-21T02:33:17.039Z,19.00
2017-06-21T02:35:44.604Z,18.90
2017-06-21T02:38:12.166Z,18.80
2017-06-21T02:40:39.633Z,18.80
2017-06-21T02:43:07.892Z,18.80
2017-06-21T02:45:35.362Z,18.80
2017-06-21T02:48:03.591Z,18.70
2017-06-21T02:50:31.175Z,18.60
2017-06-21T02:52:58.635Z,18.70
2017-06-21T02:55:26.099Z,18.70
2017-06-21T02:57:53.572Z,18.70
2017-06-21T03:00:21.823Z,18.60
2017-06-21T03:02:49.286Z,18.60
2017-06-21T03:05:16.747Z,18.70
2017-06-21T03:07:45.011Z,18.60
2017-06-21T03:10:12.473Z,18.60
2017-06-21T03:12:39.941Z,18.60
2017-06-21T03:15:20.078Z,18.50
2017-06-21T03:17:47.636Z,18.50
2017-06-21T03:20:15.186Z,18.50
2017-06-21T03:22:42.742Z,18.40
2017-06-21T03:25:10.219Z,18.50
2017-06-21T03:27:38.450Z,18.80
2017-06-21T03:30:05.923Z,18.70
2017-06-21T03:32:33.385Z,18.80
2017-06-21T03:35:00.956Z,18.80
2017-06-21T03:37:29.598Z,18.80
2017-06-21T03:39:57.063Z,18.90
2017-06-21T03:42:24.519Z,18.90
2017-06-21T03:44:52.007Z,18.90
2017-06-21T03:47:19.568Z,18.80
2017-06-21T03:49:47.043Z,18.80
2017-06-21T03:52:14.595Z,18.90
2017-06-21T03:54:42.858Z,19.00
2017-06-21T03:57:10.409Z,19.00
2017-06-21T03:59:37.873Z,19.10
2017-06-21T04:02:05.339Z,19.10
2017-06-21T04:04:33.574Z,19.30
2017-06-21T04:07:01.039Z,19.20
2017-06-21T04:09:28.495Z,19.40
2017-06-21T04:11:55.962Z,19.50
2017-06-21T04:14:23.534Z,19.60
2017-06-21T04:16:51.095Z,19.70
2017-06-21T04:19:18.645Z,19.80
2017-06-21T04:21:46.207Z,19.90
2017-06-21T04:24:13.662Z,20.20
2017-06-21T04:26:41.118Z,21.30
2017-06-21T04:29:08.678Z,22.70
2017-06-21T07:32:36.713Z,25.10
2017-06-21T07:35:04.973Z,25.60
2017-06-21T07:37:32.522Z,25.50
2017-06-21T07:40:00.092Z,25.70
2017-06-21T07:42:27.560Z,25.80
2017-06-21T07:44:55.821Z,26.10
2017-06-21T07:47:23.288Z,26.00
2017-06-21T07:49:51.542Z,25.80
2017-06-21T07:52:19.003Z,25.80
2017-06-21T07:54:46.555Z,25.80
2017-06-21T07:57:14.119Z,25.80
2017-06-21T07:59:41.580Z,25.90
2017-06-21T08:02:09.050Z,26.20
2017-06-21T08:04:36.592Z,26.00
2017-06-21T08:07:04.050Z,25.90
2017-06-21T08:09:31.607Z,25.90
2017-06-21T08:11:59.074Z,26.30
2017-06-21T08:14:26.540Z,26.20
2017-06-21T08:16:54.774Z,25.90
2017-06-21T08:19:22.251Z,25.90
2017-06-21T08:21:49.807Z,26.20
2017-06-21T08:24:17.271Z,26.20
2017-06-21T08:26:44.827Z,26.40
2017-06-21T08:29:12.290Z,26.50
2017-06-21T08:31:39.838Z,26.90
2017-06-21T08:34:07.294Z,26.90
2017-06-21T08:36:34.759Z,26.60
2017-06-21T08:39:02.222Z,26.70
2017-06-21T08:41:29.682Z,26.50
2017-06-21T08:43:57.938Z,26.50
2017-06-21T08:46:25.398Z,26.50
2017-06-21T08:48:52.954Z,26.90
2017-06-21T08:51:20.415Z,27.20
2017-06-21T08:53:47.974Z,27.10
2017-06-21T08:56:15.430Z,27.30
2017-06-21T08:58:42.890Z,27.50
2017-06-21T09:01:10.354Z,27.50
2017-06-21T09:03:38.622Z,28.00
2017-06-21T09:06:06.083Z,27.90
2017-06-21T09:08:33.635Z,28.10
2017-06-21T09:11:01.190Z,28.10
2017-06-21T09:13:28.660Z,27.80
2017-06-21T09:15:56.223Z,27.60
2017-06-21T09:18:23.671Z,27.40
2017-06-21T09:20:51.214Z,27.50
2017-06-21T09:23:18.683Z,27.40
2017-06-21T09:25:46.235Z,27.70
2017-06-21T09:28:13.700Z,28.10
2017-06-21T09:30:41.162Z,28.10
2017-06-21T09:33:09.417Z,28.20
2017-06-21T09:35:36.974Z,28.20
2017-06-21T09:38:04.434Z,28.10
2017-06-21T09:40:31.991Z,28.00
2017-06-21T09:42:59.458Z,28.20
2017-06-21T09:45:26.930Z,28.10
2017-06-21T09:47:55.163Z,28.40
2017-06-21T09:50:22.627Z,28.40
2017-06-21T09:52:50.099Z,28.80
2017-06-21T09:55:17.652Z,29.10
2017-06-21T09:57:45.211Z,29.00
2017-06-21T10:00:12.676Z,29.10
2017-06-21T10:02:40.222Z,29.40
2017-06-21T10:05:07.783Z,29.70
2017-06-21T10:07:35.247Z,30.10
2017-06-21T10:10:02.799Z,30.10
2017-06-21T10:12:30.258Z,30.10
2017-06-21T10:14:57.725Z,29.80
2017-06-21T10:17:25.190Z,29.80
2017-06-21T10:19:53.442Z,30.10
2017-06-21T10:22:20.903Z,30.10
2017-06-21T10:24:48.462Z,30.20
2017-06-21T10:27:15.950Z,29.70
2017-06-21T10:29:43.398Z,29.50
2017-06-21T10:32:11.643Z,29.90
2017-06-21T10:34:39.098Z,29.90
2017-06-21T10:37:06.558Z,30.00
2017-06-21T10:39:34.113Z,30.00
2017-06-21T10:42:01.569Z,29.60
2017-06-21T10:44:29.022Z,29.80
2017-06-21T10:46:56.482Z,30.20
2017-06-21T10:49:23.940Z,30.40
2017-06-21T10:51:51.395Z,30.30
2017-06-21T10:54:18.863Z,30.80
2017-06-21T10:56:46.406Z,31.10
2017-06-21T10:59:13.892Z,31.10
2017-06-21T11:01:42.115Z,30.80
2017-06-21T11:04:09.590Z,30.80
2017-06-21T11:06:37.145Z,30.80
2017-06-21T11:09:04.598Z,31.00
2017-06-21T11:11:32.162Z,30.60
2017-06-21T11:13:59.613Z,30.80
2017-06-21T11:16:27.067Z,30.70
2017-06-21T11:18:54.523Z,30.50
2017-06-21T11:21:22.096Z,30.20
2017-06-21T11:23:49.539Z,30.50
2017-06-21T11:26:17.002Z,30.90
2017-06-21T11:28:44.457Z,31.00
2017-06-21T11:31:11.924Z,30.80
2017-06-21T11:33:39.382Z,31.00
2017-06-21T11:36:06.846Z,31.10
2017-06-21T11:38:34.298Z,31.10
2017-06-21T11:41:01.754Z,31.20
2017-06-21T11:43:29.306Z,31.40
2017-06-21T11:45:56.763Z,31.40
2017-06-21T11:48:24.226Z,31.60
2017-06-21T11:50:51.770Z,31.40
2017-06-21T11:53:19.242Z,31.60
2017-06-21T11:55:46.699Z,31.60
2017-06-21T11:58:14.961Z,31.90
2017-06-21T12:00:42.534Z,32.00
2017-06-21T12:03:10.803Z,31.80
2017-06-21T12:05:38.254Z,31.80
2017-06-21T12:08:05.812Z,31.70
2017-06-21T12:10:33.265Z,31.90
2017-06-21T12:13:00.822Z,32.00
2017-06-21T12:15:28.290Z,31.90
2017-06-21T12:17:55.839Z,32.20
2017-06-21T12:20:23.306Z,32.20
2017-06-21T12:22:50.863Z,32.00
2017-06-21T12:25:18.322Z,32.10
2017-06-21T12:27:46.587Z,31.90
2017-06-21T12:30:14.043Z,31.90
2017-06-21T12:32:41.506Z,31.60
2017-06-21T12:35:08.976Z,31.60
2017-06-21T12:37:37.230Z,32.00
2017-06-21T12:40:04.687Z,32.00
2017-06-21T12:42:32.246Z,32.10
2017-06-21T12:44:59.701Z,32.10
2017-06-21T12:47:27.163Z,31.90
2017-06-21T12:49:54.716Z,32.00
2017-06-21T12:52:22.182Z,31.90
2017-06-21T12:54:49.637Z,32.10
2017-06-21T12:57:17.094Z,31.80
2017-06-21T12:59:44.631Z,31.90
2017-06-21T13:02:12.164Z,32.00
2017-06-21T13:04:39.650Z,32.10
2017-06-21T13:07:07.206Z,32.50
2017-06-21T13:09:34.775Z,32.70
2017-06-21T13:12:02.231Z,32.60
2017-06-21T13:14:29.690Z,32.50
2017-06-21T13:16:57.238Z,32.70
2017-06-21T13:19:24.802Z,32.60
2017-06-21T13:21:52.251Z,31.70
2017-06-21T13:24:19.821Z,31.80
2017-06-21T13:26:47.274Z,32.10
2017-06-21T13:29:14.738Z,32.40
2017-06-21T13:31:42.282Z,32.20
2017-06-21T13:34:09.757Z,32.00
2017-06-21T13:36:38.024Z,32.50
2017-06-21T13:39:05.470Z,32.50
2017-06-21T13:41:33.040Z,32.70
2017-06-21T13:44:00.590Z,32.80
2017-06-21T13:46:28.155Z,32.50
2017-06-21T13:48:55.602Z,32.70
2017-06-21T13:51:23.063Z,32.60
2017-06-21T13:53:50.518Z,32.60
2017-06-21T13:56:17.974Z,32.60
2017-06-21T13:58:45.539Z,32.70
2017-06-21T14:01:13.004Z,32.70
2017-06-21T14:03:40.453Z,32.70
2017-06-21T14:06:08.004Z,32.50
2017-06-21T14:08:35.463Z,32.30
2017-06-21T14:11:02.939Z,32.50
2017-06-21T14:13:31.199Z,32.40
2017-06-21T14:15:58.758Z,32.30
2017-06-21T14:18:26.238Z,32.50
2017-06-21T14:20:54.490Z,33.20
2017-06-21T14:23:21.959Z,33.10
2017-06-21T14:25:50.190Z,32.70
2017-06-21T14:28:17.643Z,32.70
2017-06-21T14:30:45.091Z,32.60
2017-06-21T14:33:12.562Z,32.50
2017-06-21T14:35:40.039Z,32.50
2017-06-21T14:38:07.503Z,32.50
2017-06-21T14:40:35.063Z,32.50
2017-06-21T14:43:02.522Z,32.50
2017-06-21T14:45:30.746Z,32.40
2017-06-21T14:47:58.243Z,32.30
2017-06-21T14:50:25.695Z,32.20
2017-06-21T14:52:53.148Z,32.50
2017-06-21T14:55:20.598Z,32.60
2017-06-21T14:57:48.062Z,32.80
2017-06-21T15:00:15.514Z,33.00
2017-06-21T15:02:43.079Z,33.10
2017-06-21T15:05:10.538Z,32.70
2017-06-21T15:10:12.686Z,33.00
2017-06-21T15:12:40.142Z,33.00
2017-06-21T15:15:07.597Z,32.80
2017-06-21T15:17:35.086Z,33.00
2017-06-21T15:20:02.568Z,33.10
2017-06-21T15:22:30.798Z,33.00
2017-06-21T15:24:58.277Z,32.90
2017-06-21T15:27:25.746Z,33.00
2017-06-21T15:29:53.966Z,32.80
2017-06-21T15:32:21.462Z,32.80
2017-06-21T15:34:48.912Z,32.60
2017-06-21T15:37:16.471Z,32.60
2017-06-21T15:39:43.922Z,32.30
2017-06-21T15:42:11.382Z,32.50
2017-06-21T15:44:38.831Z,32.50
2017-06-21T15:47:06.403Z,32.60
2017-06-21T15:49:33.854Z,32.80
2017-06-21T15:52:01.321Z,32.60
2017-06-21T15:54:28.867Z,32.90
2017-06-21T15:57:02.014Z,33.10
2017-06-21T15:59:29.470Z,32.90
2017-06-21T16:01:56.955Z,33.10
2017-06-21T16:04:24.398Z,33.10
2017-06-21T16:06:51.850Z,32.50
2017-06-21T16:09:19.326Z,32.20
2017-06-21T16:11:46.794Z,32.00
2017-06-21T16:14:14.254Z,32.00
2017-06-21T16:16:41.822Z,32.20
2017-06-21T16:19:09.274Z,32.00
2017-06-21T16:21:36.730Z,32.10
2017-06-21T16:24:04.187Z,32.60
2017-06-21T16:26:31.643Z,32.90
2017-06-21T16:28:59.108Z,33.00
2017-06-21T16:31:26.567Z,33.00
2017-06-21T16:33:54.018Z,33.10
2017-06-21T16:36:21.473Z,32.80
2017-06-21T16:38:48.967Z,32.50
2017-06-21T16:41:16.484Z,32.50
2017-06-21T16:43:43.949Z,32.10
2017-06-21T16:46:11.407Z,32.30
2017-06-21T16:48:39.674Z,31.90
2017-06-21T16:51:07.159Z,31.90
2017-06-21T16:53:34.612Z,31.80
2017-06-21T16:56:02.846Z,32.10
2017-06-21T16:58:30.308Z,32.00
2017-06-21T17:00:57.770Z,32.10
2017-06-21T17:03:25.238Z,32.40
2017-06-21T17:05:52.775Z,32.00
2017-06-21T17:08:20.230Z,32.30
2017-06-21T17:10:47.698Z,32.10
2017-06-21T17:13:15.147Z,31.90
2017-06-21T17:15:42.606Z,31.80
2017-06-21T17:18:10.063Z,31.40
2017-06-21T17:20:37.520Z,31.30
2017-06-21T17:23:05.078Z,31.40
2017-06-21T17:25:32.531Z,31.30
2017-06-21T17:28:00.003Z,30.90
2017-06-21T17:30:28.263Z,30.90
2017-06-21T17:32:55.731Z,30.80
2017-06-21T17:35:23.958Z,30.80
2017-06-21T17:37:51.456Z,30.80
2017-06-21T17:40:18.910Z,30.70
2017-06-21T17:42:46.460Z,30.70
2017-06-21T17:45:13.909Z,30.70
2017-06-21T17:47:41.487Z,30.70
2017-06-21T17:50:08.948Z,30.60
2017-06-21T17:52:36.403Z,30.60
2017-06-21T17:55:03.866Z,30.50
2017-06-21T17:57:32.086Z,30.40
2017-06-21T17:59:59.580Z,30.50
2017-06-21T18:02:27.045Z,30.40
2017-06-21T18:04:54.503Z,30.40
2017-06-21T18:07:22.055Z,30.40
2017-06-21T18:09:49.527Z,30.30
2017-06-21T18:12:17.747Z,30.20
2017-06-21T18:14:45.203Z,30.20
2017-06-21T18:17:12.667Z,30.20
2017-06-21T18:19:40.129Z,30.10
2017-06-21T18:22:07.590Z,30.00
2017-06-21T18:24:35.042Z,30.00
2017-06-21T18:27:04.608Z,29.90
2017-06-21T18:29:32.182Z,29.80
2017-06-21T18:31:59.678Z,29.70
2017-06-21T18:34:27.140Z,29.60
2017-06-21T18:36:54.607Z,29.60
2017-06-21T18:39:22.062Z,29.50
2017-06-21T18:41:49.611Z,29.50
2017-06-21T18:44:17.070Z,29.40
2017-06-21T18:46:44.532Z,29.40
2017-06-21T18:49:11.994Z,29.30
2017-06-21T18:51:40.258Z,29.10
2017-06-21T18:54:07.718Z,29.10
2017-06-21T18:56:35.177Z,29.00
2017-06-21T18:59:03.448Z,28.80
2017-06-21T19:01:30.906Z,28.80
2017-06-21T19:03:58.906Z,28.70
2017-06-21T19:06:26.494Z,28.60
2017-06-21T19:08:54.119Z,28.50
2017-06-21T19:11:21.660Z,28.50
2017-06-21T19:13:49.122Z,28.40
2017-06-21T19:16:18.378Z,28.20
2017-06-21T19:18:46.207Z,28.20
2017-06-21T19:21:13.714Z,28.10
2017-06-21T19:23:41.318Z,27.90
2017-06-21T19:26:08.807Z,27.90
2017-06-21T19:28:36.351Z,27.70
2017-06-21T19:31:03.829Z,27.60
2017-06-21T19:33:31.440Z,27.40
2017-06-21T19:36:00.210Z,27.30
2017-06-21T19:38:27.658Z,27.10
2017-06-21T19:40:55.214Z,26.90
2017-06-21T19:43:22.675Z,26.70
2017-06-21T19:45:50.135Z,26.50
2017-06-21T19:48:17.591Z,26.40
2017-06-21T19:50:45.814Z,26.10
2017-06-21T19:53:13.287Z,26.10
2017-06-21T19:55:40.771Z,26.00
2017-06-21T19:58:08.225Z,25.90
2017-06-21T20:00:35.859Z,25.80
2017-06-21T20:03:03.322Z,25.70
2017-06-21T20:05:30.770Z,25.60
2017-06-21T20:07:58.258Z,25.50
2017-06-21T20:10:25.712Z,25.40
2017-06-21T20:12:53.199Z,25.40
2017-06-21T20:15:20.670Z,25.30
2017-06-21T20:17:48.155Z,25.20
2017-06-21T20:20:15.630Z,25.10
2017-06-21T20:22:43.123Z,25.10
2017-06-21T20:25:11.354Z,24.80
2017-06-21T20:27:38.823Z,24.80
2017-06-21T20:30:06.291Z,24.70
2017-06-21T20:32:33.748Z,24.70
2017-06-21T20:35:01.216Z,24.50
2017-06-21T20:37:28.670Z,24.40
2017-06-21T20:39:56.912Z,24.30
2017-06-21T20:42:24.366Z,24.30
2017-06-21T20:44:51.830Z,24.30
2017-06-21T20:47:19.287Z,24.30
2017-06-21T20:49:46.744Z,24.30
2017-06-21T20:52:14.190Z,24.30
2017-06-21T20:54:41.662Z,24.30
2017-06-21T20:57:09.127Z,24.30
2017-06-21T20:59:36.635Z,24.20
2017-06-21T21:02:04.098Z,24.10
2017-06-21T21:04:31.558Z,24.00
2017-06-21T21:06:59.022Z,23.80
2017-06-21T21:09:26.484Z,23.70
2017-06-21T21:11:54.053Z,23.60
2017-06-21T21:14:21.507Z,23.50
2017-06-21T21:16:49.078Z,23.50
2017-06-21T21:19:16.531Z,23.40
2017-06-21T21:21:44.090Z,23.40
2017-06-21T21:24:11.547Z,23.50
2017-06-21T21:26:38.994Z,23.40
2017-06-21T21:29:06.458Z,23.40
2017-06-21T21:31:33.919Z,23.30
2017-06-21T21:34:01.382Z,23.20
2017-06-21T21:36:28.826Z,23.00
2017-06-21T21:38:56.300Z,22.90
2017-06-21T21:41:23.750Z,22.80
2017-06-21T21:43:51.210Z,22.80
2017-06-21T21:46:19.475Z,22.60
2017-06-21T21:48:46.942Z,22.60
2017-06-21T21:51:15.158Z,22.60
2017-06-21T21:53:42.634Z,22.60
2017-06-21T21:56:10.094Z,22.60
2017-06-21T21:58:37.572Z,22.60
2017-06-21T22:02:38.002Z,22.40
2017-06-21T22:05:05.470Z,22.30
2017-06-21T22:07:32.918Z,22.20
2017-06-21T22:10:00.382Z,22.20
2017-06-21T22:12:27.839Z,22.10
2017-06-21T22:14:55.310Z,22.10
2017-06-21T22:17:23.532Z,22.10
2017-06-21T22:19:51.019Z,22.10
2017-06-21T22:22:18.477Z,22.00
2017-06-21T22:24:46.034Z,22.00
2017-06-21T22:27:13.497Z,21.90
2017-06-21T22:29:40.958Z,21.90
2017-06-21T22:32:09.218Z,21.80
2017-06-21T22:34:36.778Z,21.80
2017-06-21T22:37:04.238Z,21.70
2017-06-21T22:39:31.695Z,21.60
2017-06-21T22:41:59.249Z,21.50
2017-06-21T22:44:26.713Z,21.50
2017-06-21T22:46:54.266Z,21.40
2017-06-21T22:49:21.735Z,21.40
2017-06-21T22:51:50.000Z,21.40
2017-06-21T22:54:17.546Z,21.40
2017-06-21T22:56:45.013Z,21.40
2017-06-21T22:59:12.478Z,21.40
2017-06-21T23:01:39.938Z,21.50
2017-06-21T23:04:08.169Z,21.40
2017-06-21T23:06:35.635Z,21.40
2017-06-21T23:09:03.122Z,21.30
2017-06-21T23:11:31.386Z,21.30
2017-06-21T23:13:58.934Z,21.20
2017-06-21T23:16:26.407Z,21.30
2017-06-21T23:18:53.858Z,21.30
2017-06-21T23:21:21.322Z,21.30
2017-06-21T23:23:49.481Z,21.30
2017-06-21T23:26:16.951Z,21.20
2017-06-21T23:28:44.502Z,21.10
2017-06-21T23:31:12.055Z,21.00
2017-06-21T23:33:39.526Z,21.00
2017-06-21T23:36:06.986Z,21.00
2017-06-21T23:38:35.250Z,20.80
2017-06-21T23:41:02.811Z,20.80
2017-06-21T23:43:30.275Z,20.80
2017-06-21T23:45:58.506Z,20.70
2017-06-21T23:48:25.969Z,20.70
2017-06-21T23:50:53.422Z,20.60
2017-06-21T23:53:20.899Z,20.60
2017-06-21T23:55:48.371Z,20.60
2017-06-21T23:58:15.847Z,20.50
